createdAt,value
2019-02-27T00:00:11.480Z,72.89
2019-02-27T00:02:43.364Z,73.02
2019-02-27T00:05:14.686Z,72.90
2019-02-27T00:07:45.978Z,73.21
2019-02-27T00:10:17.431Z,72.04
2019-02-27T00:12:51.773Z,72.68
2019-02-27T00:15:42.970Z,72.95
2019-02-27T00:18:14.425Z,73.07
2019-02-27T00:20:53.363Z,73.48
2019-02-27T00:23:24.682Z,73.39
2019-02-27T00:25:56.001Z,73.41
2019-02-27T00:28:27.351Z,72.22
2019-02-27T00:30:58.587Z,72.54
2019-02-27T00:33:29.838Z,72.53
2019-02-27T00:36:01.117Z,72.80
2019-02-27T00:38:32.399Z,73.04
2019-02-27T00:41:03.684Z,72.43
2019-02-27T00:43:53.889Z,72.78
2019-02-27T00:46:46.435Z,73.02
2019-02-27T00:49:17.338Z,72.86
2019-02-27T00:51:48.678Z,71.56
2019-02-27T00:54:20.003Z,70.45
2019-02-27T00:56:51.446Z,70.35
2019-02-27T00:59:22.782Z,68.75
2019-02-27T01:01:54.139Z,68.57
2019-02-27T01:04:25.451Z,68.47
2019-02-27T01:06:56.773Z,68.48
2019-02-27T01:09:28.141Z,68.96
2019-02-27T01:11:59.458Z,69.48
2019-02-27T01:14:30.798Z,70.14
2019-02-27T01:17:02.045Z,70.80
2019-02-27T01:19:38.504Z,71.56
2019-02-27T01:22:06.211Z,72.39
2019-02-27T01:24:37.623Z,72.91
2019-02-27T01:27:09.067Z,73.28
2019-02-27T01:29:40.369Z,73.35
2019-02-27T01:32:11.765Z,73.57
2019-02-27T01:34:44.435Z,74.10
2019-02-27T01:37:16.105Z,74.55
2019-02-27T01:39:47.386Z,74.42
2019-02-27T01:42:18.684Z,74.40
2019-02-27T01:44:49.913Z,74.13
2019-02-27T01:47:22.340Z,74.44
2019-02-27T01:50:35.064Z,74.65
2019-02-27T01:53:08.111Z,74.83
2019-02-27T01:55:39.601Z,75.34
2019-02-27T01:58:10.938Z,75.57
2019-02-27T02:00:42.611Z,75.81
2019-02-27T02:03:14.359Z,76.05
2019-02-27T02:05:45.633Z,76.14
2019-02-27T02:08:16.968Z,76.65
2019-02-27T02:10:48.250Z,77.00
2019-02-27T02:13:57.995Z,77.05
2019-02-27T02:17:29.789Z,77.44
2019-02-27T02:20:44.960Z,77.78
2019-02-27T02:24:04.935Z,77.90
2019-02-27T02:28:02.564Z,77.92
2019-02-27T02:31:32.703Z,78.32
2019-02-27T02:34:49.542Z,78.60
2019-02-27T02:38:15.214Z,78.89
2019-02-27T02:41:46.685Z,79.16
2019-02-27T02:44:31.946Z,79.38
2019-02-27T02:48:01.293Z,79.60
2019-02-27T02:51:18.017Z,79.55
2019-02-27T02:54:55.097Z,79.75
2019-02-27T02:58:15.987Z,79.17
2019-02-27T03:01:04.327Z,79.09
2019-02-27T03:05:02.363Z,79.55
2019-02-27T03:08:28.658Z,79.33
2019-02-27T03:11:54.860Z,79.63
2019-02-27T03:15:19.839Z,79.62
2019-02-27T03:19:05.031Z,79.84
2019-02-27T03:22:47.896Z,80.45
2019-02-27T03:25:58.387Z,80.29
2019-02-27T03:29:30.998Z,80.52
2019-02-27T03:32:54.960Z,79.60
2019-02-27T03:36:26.322Z,79.77
2019-02-27T03:39:48.074Z,80.34
2019-02-27T03:42:49.913Z,80.73
2019-02-27T03:45:41.681Z,80.61
2019-02-27T03:49:11.986Z,80.35
2019-02-27T03:52:13.714Z,80.68
2019-02-27T03:55:32.860Z,80.54
2019-02-27T03:58:43.882Z,80.46
2019-02-27T04:02:31.910Z,80.57
2019-02-27T04:05:07.124Z,81.22
2019-02-27T04:08:40.335Z,81.21
2019-02-27T04:11:09.460Z,81.52
2019-02-27T04:13:40.868Z,81.80
2019-02-27T04:16:12.382Z,81.78
2019-02-27T04:18:40.902Z,81.66
2019-02-27T04:21:12.616Z,81.66
2019-02-27T04:23:47.940Z,81.53
2019-02-27T04:26:19.340Z,81.62
2019-02-27T04:28:50.020Z,81.93
2019-02-27T04:31:21.355Z,82.00
2019-02-27T04:33:52.887Z,81.84
2019-02-27T04:36:24.300Z,81.79
2019-02-27T04:38:55.536Z,81.95
2019-02-27T04:41:27.032Z,82.42
2019-02-27T04:43:58.374Z,82.51
2019-02-27T04:46:29.884Z,82.35
2019-02-27T04:49:03.884Z,82.32
2019-02-27T04:51:35.610Z,82.36
2019-02-27T04:54:07.557Z,82.21
2019-02-27T04:56:39.027Z,82.46
2019-02-27T04:59:10.365Z,82.60
2019-02-27T05:01:41.748Z,82.64
2019-02-27T05:04:13.145Z,82.81
2019-02-27T05:06:46.853Z,82.97
2019-02-27T05:09:17.713Z,82.98
2019-02-27T05:12:08.475Z,82.55
2019-02-27T05:14:39.759Z,82.51
2019-02-27T05:17:11.067Z,82.98
2019-02-27T05:19:42.376Z,82.58
2019-02-27T05:22:13.554Z,82.10
2019-02-27T05:24:44.943Z,82.39
2019-02-27T05:27:16.496Z,82.63
2019-02-27T05:29:47.799Z,82.78
2019-02-27T05:32:19.151Z,83.05
2019-02-27T05:34:50.599Z,83.42
2019-02-27T05:37:22.070Z,83.18
2019-02-27T05:39:53.464Z,82.90
2019-02-27T05:42:24.860Z,83.02
2019-02-27T05:44:56.753Z,83.06
2019-02-27T05:47:28.220Z,83.48
2019-02-27T05:50:00.676Z,83.60
2019-02-27T05:52:32.985Z,83.50
2019-02-27T05:55:06.420Z,83.66
2019-02-27T05:57:37.746Z,83.65
2019-02-27T06:00:14.204Z,83.82
2019-02-27T06:02:45.718Z,83.79
2019-02-27T06:05:17.310Z,83.80
2019-02-27T06:07:48.657Z,83.82
2019-02-27T06:10:20.863Z,83.75
2019-02-27T06:12:53.213Z,83.68
2019-02-27T06:15:26.100Z,83.83
2019-02-27T06:18:22.459Z,84.04
2019-02-27T06:20:52.067Z,83.96
2019-02-27T06:23:23.289Z,83.52
2019-02-27T06:25:59.050Z,82.92
2019-02-27T06:28:27.632Z,83.47
2019-02-27T06:30:58.964Z,83.55
2019-02-27T06:33:30.475Z,83.56
2019-02-27T06:36:01.813Z,82.77
2019-02-27T06:38:33.131Z,82.43
2019-02-27T06:41:04.579Z,82.65
2019-02-27T06:43:35.832Z,82.74
2019-02-27T06:46:07.117Z,82.96
2019-02-27T06:48:42.986Z,83.13
2019-02-27T06:51:11.612Z,82.72
2019-02-27T06:53:47.916Z,82.80
2019-02-27T06:56:19.304Z,82.59
2019-02-27T06:58:50.733Z,81.97
2019-02-27T07:01:22.103Z,81.45
2019-02-27T07:03:53.457Z,81.42
2019-02-27T07:06:24.853Z,82.06
2019-02-27T07:08:56.123Z,81.97
2019-02-27T07:11:27.529Z,81.74
2019-02-27T07:13:58.875Z,81.63
2019-02-27T07:16:30.186Z,81.50
2019-02-27T07:19:01.509Z,81.62
2019-02-27T07:21:33.582Z,83.46
2019-02-27T07:24:42.814Z,80.53
2019-02-27T07:27:14.087Z,74.82
2019-02-27T07:29:45.333Z,63.97
2019-02-27T07:32:16.650Z,59.69
2019-02-27T07:34:49.734Z,55.25
2019-02-27T07:37:20.889Z,51.28
2019-02-27T07:39:52.267Z,47.45
2019-02-27T07:42:23.527Z,45.58
2019-02-27T07:44:54.805Z,46.04
2019-02-27T07:47:26.138Z,45.75
2019-02-27T07:49:57.473Z,45.21
2019-02-27T07:52:32.255Z,43.11
2019-02-27T07:55:01.665Z,42.38
2019-02-27T07:57:32.862Z,40.82
2019-02-27T08:00:04.507Z,39.71
2019-02-27T08:02:36.220Z,39.82
2019-02-27T08:05:08.392Z,38.31
2019-02-27T08:07:39.731Z,36.28
2019-02-27T08:10:15.137Z,37.92
2019-02-27T08:12:46.327Z,37.93
2019-02-27T08:15:18.716Z,37.04
2019-02-27T08:17:50.054Z,37.06
2019-02-27T08:20:21.360Z,34.97
2019-02-27T08:22:55.525Z,34.72
2019-02-27T08:25:26.823Z,34.86
2019-02-27T08:27:58.130Z,33.63
2019-02-27T08:30:38.203Z,34.23
2019-02-27T08:33:09.514Z,33.61
2019-02-27T08:35:40.995Z,33.77
2019-02-27T08:38:12.283Z,32.76
2019-02-27T08:40:43.633Z,32.35
2019-02-27T08:43:14.973Z,29.61
2019-02-27T08:45:46.200Z,30.81
2019-02-27T08:48:18.116Z,29.85
2019-02-27T08:50:49.409Z,28.89
2019-02-27T08:53:26.049Z,29.24
2019-02-27T08:55:53.623Z,30.78
2019-02-27T08:58:26.739Z,29.25
2019-02-27T09:00:58.208Z,28.89
2019-02-27T09:03:29.663Z,29.52
2019-02-27T09:06:01.304Z,30.49
2019-02-27T09:08:32.737Z,30.57
2019-02-27T09:11:06.542Z,29.23
2019-02-27T09:13:37.609Z,30.78
2019-02-27T09:16:08.961Z,30.77
2019-02-27T09:18:40.294Z,28.46
2019-02-27T09:21:11.698Z,28.49
2019-02-27T09:23:45.187Z,30.51
2019-02-27T09:26:16.638Z,32.22
2019-02-27T09:28:48.421Z,30.93
2019-02-27T09:31:19.857Z,30.49
2019-02-27T09:33:53.326Z,31.09
2019-02-27T09:36:30.914Z,31.44
2019-02-27T09:39:02.330Z,31.15
2019-02-27T09:41:33.977Z,33.67
2019-02-27T09:44:05.378Z,34.66
2019-02-27T09:46:36.783Z,35.14
2019-02-27T09:49:08.706Z,35.54
2019-02-27T09:51:40.559Z,37.31
2019-02-27T09:54:13.282Z,37.40
2019-02-27T09:56:45.023Z,37.38
2019-02-27T09:59:19.784Z,38.03
2019-02-27T10:01:51.392Z,37.92
2019-02-27T10:04:22.933Z,37.63
2019-02-27T10:06:58.238Z,37.31
2019-02-27T10:09:29.843Z,37.73
2019-02-27T10:12:01.289Z,38.42
2019-02-27T10:14:32.797Z,37.64
2019-02-27T10:17:06.729Z,38.35
2019-02-27T10:19:37.554Z,37.32
2019-02-27T10:22:08.935Z,37.67
2019-02-27T10:24:40.418Z,36.79
2019-02-27T10:27:11.854Z,35.67
2019-02-27T10:29:47.591Z,36.21
2019-02-27T10:32:17.415Z,38.02
2019-02-27T10:34:50.995Z,37.76
2019-02-27T10:37:22.530Z,37.83
2019-02-27T10:39:53.938Z,37.50
2019-02-27T10:42:44.477Z,35.88
2019-02-27T10:45:16.247Z,36.48
2019-02-27T10:47:47.795Z,37.13
2019-02-27T10:50:19.348Z,35.48
2019-02-27T10:52:50.850Z,36.31
2019-02-27T10:55:22.576Z,36.98
2019-02-27T10:57:54.163Z,36.57
2019-02-27T11:00:30.373Z,36.49
2019-02-27T11:03:02.085Z,36.67
2019-02-27T11:05:34.590Z,36.87
2019-02-27T11:08:10.293Z,37.65
2019-02-27T11:10:41.673Z,37.53
2019-02-27T11:13:13.555Z,37.01
2019-02-27T11:15:45.567Z,37.01
2019-02-27T11:18:17.060Z,36.63
2019-02-27T11:20:48.743Z,36.09
2019-02-27T11:23:20.113Z,35.43
2019-02-27T11:25:56.530Z,35.00
2019-02-27T11:28:24.338Z,36.15
2019-02-27T11:30:55.862Z,35.44
2019-02-27T11:33:27.158Z,34.66
2019-02-27T11:35:58.504Z,34.87
2019-02-27T11:38:29.791Z,36.13
2019-02-27T11:41:01.129Z,35.62
2019-02-27T11:43:32.681Z,36.04
2019-02-27T11:46:07.243Z,35.10
2019-02-27T11:48:38.666Z,34.37
2019-02-27T11:51:10.025Z,33.99
2019-02-27T11:53:41.478Z,33.07
2019-02-27T11:56:13.032Z,34.31
2019-02-27T11:58:44.348Z,33.76
2019-02-27T12:01:15.651Z,33.78
2019-02-27T12:03:46.995Z,34.01
2019-02-27T12:06:18.437Z,32.16
2019-02-27T12:08:49.882Z,32.16
2019-02-27T12:11:21.468Z,32.25
2019-02-27T12:13:54.751Z,33.46
2019-02-27T12:16:25.857Z,33.59
2019-02-27T12:18:57.207Z,32.28
2019-02-27T12:21:28.643Z,32.31
2019-02-27T12:23:59.978Z,32.54
2019-02-27T12:26:31.343Z,32.21
2019-02-27T12:29:02.636Z,33.41
2019-02-27T12:31:34.361Z,34.29
2019-02-27T12:34:06.122Z,33.41
2019-02-27T12:36:37.430Z,32.65
2019-02-27T12:39:09.596Z,33.79
2019-02-27T12:41:40.941Z,33.54
2019-02-27T12:44:12.399Z,32.60
2019-02-27T12:46:43.953Z,31.90
2019-02-27T12:49:16.931Z,31.11
2019-02-27T12:51:48.337Z,31.48
2019-02-27T12:54:19.759Z,32.12
2019-02-27T12:57:10.149Z,31.86
2019-02-27T12:59:41.590Z,30.48
2019-02-27T13:02:12.996Z,31.84
2019-02-27T13:04:44.484Z,32.30
2019-02-27T13:07:16.034Z,32.57
2019-02-27T13:09:47.362Z,31.13
2019-02-27T13:12:18.806Z,31.24
2019-02-27T13:14:50.091Z,30.14
2019-02-27T13:17:22.260Z,29.81
2019-02-27T13:19:53.664Z,30.80
2019-02-27T13:22:26.281Z,30.63
2019-02-27T13:24:58.112Z,31.41
2019-02-27T13:27:29.400Z,29.61
2019-02-27T13:30:22.295Z,30.35
2019-02-27T13:34:05.442Z,30.86
2019-02-27T13:48:54.253Z,31.95
2019-02-27T13:51:25.568Z,31.54
2019-02-27T13:54:00.205Z,30.70
2019-02-27T13:56:29.977Z,28.48
2019-02-27T13:59:20.478Z,29.46
2019-02-27T14:01:51.954Z,30.84
2019-02-27T14:04:23.392Z,31.28
2019-02-27T14:06:54.816Z,31.89
2019-02-27T14:09:26.230Z,31.84
2019-02-27T14:11:58.710Z,30.00
2019-02-27T14:14:30.656Z,28.50
2019-02-27T14:17:01.943Z,29.58
2019-02-27T14:19:33.311Z,29.66
2019-02-27T14:22:07.159Z,30.10
2019-02-27T14:24:42.168Z,30.16
2019-02-27T14:27:14.619Z,30.42
2019-02-27T14:29:53.439Z,29.48
2019-02-27T14:32:25.082Z,29.91
2019-02-27T14:34:58.034Z,28.59
2019-02-27T14:37:29.402Z,28.99
2019-02-27T14:40:03.884Z,29.35
2019-02-27T14:42:33.597Z,30.55
2019-02-27T14:45:06.416Z,29.58
2019-02-27T14:47:38.879Z,30.08
2019-02-27T14:50:13.983Z,29.96
2019-02-27T14:52:45.797Z,28.15
2019-02-27T14:55:18.249Z,27.78
2019-02-27T14:57:51.354Z,28.66
2019-02-27T15:00:29.073Z,30.20
2019-02-27T15:03:22.457Z,29.76
2019-02-27T15:05:54.237Z,31.40
2019-02-27T15:08:26.040Z,30.22
2019-02-27T15:10:57.311Z,30.55
2019-02-27T15:13:28.996Z,30.69
2019-02-27T15:16:00.340Z,31.35
2019-02-27T15:18:31.777Z,31.41
2019-02-27T15:21:03.168Z,30.90
2019-02-27T15:23:34.526Z,31.07
2019-02-27T15:26:05.904Z,30.58
2019-02-27T15:28:37.263Z,31.37
2019-02-27T15:31:08.833Z,32.71
2019-02-27T15:33:45.619Z,32.46
2019-02-27T15:36:17.004Z,31.77
2019-02-27T15:38:48.708Z,30.62
2019-02-27T15:41:20.251Z,31.31
2019-02-27T15:43:59.755Z,30.23
2019-02-27T15:46:24.528Z,30.47
2019-02-27T15:48:55.865Z,31.60
2019-02-27T15:51:28.469Z,33.32
2019-02-27T15:54:00.124Z,32.33
2019-02-27T15:56:31.621Z,31.84
2019-02-27T15:59:06.219Z,32.40
2019-02-27T16:01:35.794Z,32.89
2019-02-27T16:04:07.486Z,31.78
2019-02-27T16:06:39.902Z,32.50
2019-02-27T16:09:12.377Z,31.89
2019-02-27T16:11:43.926Z,32.86
2019-02-27T16:14:15.195Z,34.16
2019-02-27T16:16:47.628Z,32.63
2019-02-27T16:19:20.281Z,32.35
2019-02-27T16:21:56.832Z,32.64
2019-02-27T16:24:24.842Z,32.84
2019-02-27T16:27:00.871Z,33.30
2019-02-27T16:29:31.084Z,33.44
2019-02-27T16:32:02.403Z,34.25
2019-02-27T16:34:34.134Z,34.68
2019-02-27T16:37:05.841Z,35.92
2019-02-27T16:39:41.391Z,35.23
2019-02-27T16:42:10.615Z,35.54
2019-02-27T16:44:42.128Z,36.78
2019-02-27T16:47:15.494Z,38.95
2019-02-27T16:49:47.272Z,38.22
2019-02-27T16:52:19.643Z,38.41
2019-02-27T16:54:51.231Z,38.38
2019-02-27T16:57:24.496Z,38.99
2019-02-27T16:59:56.378Z,39.58
2019-02-27T17:02:27.769Z,40.16
2019-02-27T17:04:59.206Z,40.39
2019-02-27T17:07:34.086Z,40.44
2019-02-27T17:10:07.393Z,40.99
2019-02-27T17:12:40.873Z,41.27
2019-02-27T17:15:11.955Z,41.65
2019-02-27T17:18:03.457Z,42.16
2019-02-27T17:20:34.872Z,42.56
2019-02-27T17:23:10.374Z,42.69
2019-02-27T17:25:39.544Z,42.80
2019-02-27T17:28:11.199Z,42.97
2019-02-27T17:30:42.691Z,44.08
2019-02-27T17:33:15.784Z,44.29
2019-02-27T17:35:47.262Z,44.83
2019-02-27T17:38:19.211Z,46.17
2019-02-27T17:40:52.465Z,47.69
2019-02-27T17:43:28.563Z,47.73
2019-02-27T17:46:01.487Z,49.02
2019-02-27T17:48:33.108Z,49.44
2019-02-27T17:51:06.474Z,50.31
2019-02-27T17:53:37.478Z,50.68
2019-02-27T17:56:25.906Z,51.29
2019-02-27T17:59:08.566Z,50.89
2019-02-27T18:01:46.998Z,51.37
2019-02-27T18:04:22.918Z,52.28
2019-02-27T18:07:00.435Z,53.18
2019-02-27T18:09:30.552Z,53.89
2019-02-27T18:12:01.808Z,54.07
2019-02-27T18:14:33.211Z,53.74
2019-02-27T18:17:07.543Z,54.28
2019-02-27T18:19:39.050Z,54.21
2019-02-27T18:22:14.015Z,55.09
2019-02-27T18:24:43.530Z,55.12
2019-02-27T18:27:15.086Z,55.27
2019-02-27T18:29:46.492Z,54.79
2019-02-27T18:32:19.510Z,55.60
2019-02-27T18:34:54.225Z,55.62
2019-02-27T18:37:23.821Z,55.42
2019-02-27T18:39:55.121Z,55.27
2019-02-27T18:42:26.422Z,54.57
2019-02-27T18:44:57.809Z,54.72
2019-02-27T18:47:29.126Z,56.31
2019-02-27T18:50:00.471Z,56.85
2019-02-27T18:52:31.808Z,56.80
2019-02-27T18:55:06.903Z,56.62
2019-02-27T18:57:45.665Z,56.97
2019-02-27T19:00:21.142Z,57.18
2019-02-27T19:02:53.905Z,57.43
2019-02-27T19:05:25.323Z,57.66
2019-02-27T19:07:56.934Z,58.00
2019-02-27T19:10:28.473Z,57.75
2019-02-27T19:13:00.974Z,57.90
2019-02-27T19:15:37.011Z,58.53
2019-02-27T19:18:08.944Z,58.39
2019-02-27T19:20:40.755Z,58.71
2019-02-27T19:23:17.196Z,58.75
2019-02-27T19:25:45.792Z,59.52
2019-02-27T19:28:17.396Z,60.48
2019-02-27T19:30:48.815Z,60.62
2019-02-27T19:33:20.504Z,60.17
2019-02-27T19:35:55.843Z,59.96
2019-02-27T19:38:25.974Z,60.03
2019-02-27T19:41:01.308Z,60.58
2019-02-27T19:43:35.343Z,61.04
2019-02-27T19:46:12.723Z,61.29
2019-02-27T19:48:46.050Z,61.22
2019-02-27T19:51:20.199Z,60.62
2019-02-27T19:53:53.248Z,60.83
2019-02-27T19:56:24.943Z,61.27
2019-02-27T19:58:56.601Z,60.84
2019-02-27T20:01:28.474Z,60.20
2019-02-27T20:04:03.019Z,59.60
2019-02-27T20:06:38.906Z,59.77
2019-02-27T20:09:12.985Z,59.91
2019-02-27T20:11:45.494Z,60.05
2019-02-27T20:14:19.337Z,60.47
2019-02-27T20:16:55.218Z,60.72
2019-02-27T20:19:28.978Z,60.86
2019-02-27T20:22:00.321Z,60.83
2019-02-27T20:24:32.415Z,60.44
2019-02-27T20:27:05.010Z,60.09
2019-02-27T20:29:40.658Z,59.57
2019-02-27T20:32:11.143Z,59.15
2019-02-27T20:34:45.756Z,58.88
2019-02-27T20:37:17.350Z,58.72
2019-02-27T20:39:48.870Z,59.21
2019-02-27T20:42:22.158Z,59.46
2019-02-27T20:44:59.565Z,59.91
2019-02-27T20:47:30.981Z,60.00
2019-02-27T20:50:02.365Z,60.61
2019-02-27T20:52:36.425Z,61.04
2019-02-27T20:55:08.057Z,61.52
2019-02-27T20:57:39.530Z,62.02
2019-02-27T21:00:15.591Z,62.06
2019-02-27T21:02:46.978Z,62.56
2019-02-27T21:05:18.453Z,63.19
2019-02-27T21:07:49.826Z,63.65
2019-02-27T21:10:22.912Z,64.16
2019-02-27T21:12:54.516Z,64.46
2019-02-27T21:15:26.198Z,64.47
2019-02-27T21:17:58.496Z,64.27
2019-02-27T21:20:30.502Z,63.68
2019-02-27T21:23:01.954Z,63.43
2019-02-27T21:25:35.208Z,63.55
2019-02-27T21:28:08.085Z,63.41
2019-02-27T21:30:43.031Z,63.21
2019-02-27T21:33:14.420Z,63.09
2019-02-27T21:35:46.012Z,61.86
2019-02-27T21:38:17.411Z,60.93
2019-02-27T21:40:49.031Z,60.28
2019-02-27T21:43:25.715Z,60.20
2019-02-27T21:45:56.951Z,60.46
2019-02-27T21:48:28.517Z,60.39
2019-02-27T21:51:00.104Z,61.06
2019-02-27T21:53:31.451Z,61.67
2019-02-27T21:56:02.863Z,62.07
2019-02-27T21:58:34.304Z,62.58
2019-02-27T22:01:05.655Z,62.92
2019-02-27T22:03:38.396Z,63.47
2019-02-27T22:06:10.058Z,63.88
2019-02-27T22:08:44.578Z,64.15
2019-02-27T22:11:16.041Z,64.63
2019-02-27T22:13:47.445Z,65.13
2019-02-27T22:16:20.536Z,65.23
2019-02-27T22:18:51.845Z,65.45
2019-02-27T22:21:25.880Z,65.72
2019-02-27T22:23:57.335Z,65.92
2019-02-27T22:26:28.603Z,66.18
2019-02-27T22:28:59.917Z,66.21
2019-02-27T22:31:31.408Z,66.56
2019-02-27T22:34:02.650Z,66.79
2019-02-27T22:36:34.009Z,67.46
2019-02-27T22:39:05.562Z,67.96
2019-02-27T22:41:37.065Z,68.19
2019-02-27T22:44:08.619Z,68.02
2019-02-27T22:46:40.104Z,68.71
2019-02-27T22:49:11.385Z,68.98
2019-02-27T22:51:44.867Z,69.34
2019-02-27T22:54:15.706Z,69.53
2019-02-27T22:56:50.076Z,69.93
2019-02-27T22:59:20.098Z,70.34
2019-02-27T23:01:54.941Z,70.49
2019-02-27T23:04:29.981Z,70.31
2019-02-27T23:07:00.003Z,70.94
2019-02-27T23:09:31.690Z,71.18
2019-02-27T23:12:03.194Z,71.64
2019-02-27T23:14:34.602Z,71.90
2019-02-27T23:17:09.088Z,71.18
2019-02-27T23:19:40.616Z,71.64
2019-02-27T23:22:11.920Z,72.16
2019-02-27T23:24:43.879Z,72.36
2019-02-27T23:27:15.987Z,73.11
2019-02-27T23:29:47.309Z,73.80
2019-02-27T23:32:18.820Z,73.74
2019-02-27T23:34:50.211Z,74.31
2019-02-27T23:37:21.571Z,74.33
2019-02-27T23:39:53.227Z,74.55
2019-02-27T23:42:27.924Z,74.80
2019-02-27T23:44:57.579Z,75.27
2019-02-27T23:47:29.361Z,75.19
2019-02-27T23:50:02.248Z,75.47
2019-02-27T23:52:33.547Z,75.53
2019-02-27T23:55:07.138Z,75.75
2019-02-27T23:57:37.999Z,75.94
